sensor_id;sensor_type;location;lat;lon;timestamp;P1;durP1;ratioP1;P2;durP2;ratioP2
12925;SDS011;6529;50.566;9.774;2022-12-18T00:01:32;5.93;;;3.27;;
12925;SDS011;6529;50.566;9.774;2022-12-18T00:03:59;4.93;;;3.03;;
12925;SDS011;6529;50.566;9.774;2022-12-18T00:06:27;6.37;;;3.50;;
12925;SDS011;6529;50.566;9.774;2022-12-18T00:08:54;5.33;;;3.27;;
12925;SDS011;6529;50.566;9.774;2022-12-18T00:11:23;5.70;;;3.37;;
12925;SDS011;6529;50.566;9.774;2022-12-18T00:13:50;4.03;;;3.10;;
12925;SDS011;6529;50.566;9.774;2022-12-18T00:16:20;5.53;;;3.07;;
12925;SDS011;6529;50.566;9.774;2022-12-18T00:18:48;4.73;;;3.07;;
12925;SDS011;6529;50.566;9.774;2022-12-18T00:21:15;5.97;;;3.40;;
12925;SDS011;6529;50.566;9.774;2022-12-18T00:23:42;4.37;;;2.37;;
12925;SDS011;6529;50.566;9.774;2022-12-18T00:26:13;3.57;;;2.73;;
12925;SDS011;6529;50.566;9.774;2022-12-18T00:28:40;3.27;;;2.27;;
12925;SDS011;6529;50.566;9.774;2022-12-18T00:31:08;3.50;;;2.53;;
12925;SDS011;6529;50.566;9.774;2022-12-18T00:33:36;4.07;;;2.47;;
12925;SDS011;6529;50.566;9.774;2022-12-18T00:36:06;5.00;;;2.50;;
12925;SDS011;6529;50.566;9.774;2022-12-18T00:38:35;5.07;;;2.77;;
12925;SDS011;6529;50.566;9.774;2022-12-18T00:41:01;5.63;;;3.13;;
12925;SDS011;6529;50.566;9.774;2022-12-18T00:43:27;6.87;;;3.63;;
12925;SDS011;6529;50.566;9.774;2022-12-18T00:45:53;5.33;;;3.77;;
12925;SDS011;6529;50.566;9.774;2022-12-18T00:48:18;6.87;;;3.67;;
12925;SDS011;6529;50.566;9.774;2022-12-18T00:50:44;5.20;;;3.13;;
12925;SDS011;6529;50.566;9.774;2022-12-18T00:53:10;4.27;;;2.67;;
12925;SDS011;6529;50.566;9.774;2022-12-18T00:55:37;7.03;;;3.13;;
12925;SDS011;6529;50.566;9.774;2022-12-18T00:58:04;4.37;;;2.67;;
12925;SDS011;6529;50.566;9.774;2022-12-18T01:00:29;6.43;;;3.33;;
12925;SDS011;6529;50.566;9.774;2022-12-18T01:02:55;7.00;;;3.70;;
12925;SDS011;6529;50.566;9.774;2022-12-18T01:05:21;5.70;;;3.20;;
12925;SDS011;6529;50.566;9.774;2022-12-18T01:07:46;7.20;;;3.90;;
12925;SDS011;6529;50.566;9.774;2022-12-18T01:10:12;7.17;;;3.23;;
12925;SDS011;6529;50.566;9.774;2022-12-18T01:12:38;3.87;;;3.30;;
12925;SDS011;6529;50.566;9.774;2022-12-18T01:15:04;5.67;;;3.00;;
12925;SDS011;6529;50.566;9.774;2022-12-18T01:17:31;6.33;;;3.27;;
12925;SDS011;6529;50.566;9.774;2022-12-18T01:19:57;5.13;;;3.23;;
12925;SDS011;6529;50.566;9.774;2022-12-18T01:22:23;7.10;;;3.40;;
12925;SDS011;6529;50.566;9.774;2022-12-18T01:24:48;6.03;;;3.47;;
12925;SDS011;6529;50.566;9.774;2022-12-18T01:27:14;6.77;;;3.87;;
12925;SDS011;6529;50.566;9.774;2022-12-18T01:29:39;8.80;;;4.30;;
12925;SDS011;6529;50.566;9.774;2022-12-18T01:32:05;5.97;;;3.53;;
12925;SDS011;6529;50.566;9.774;2022-12-18T01:34:31;6.00;;;3.50;;
12925;SDS011;6529;50.566;9.774;2022-12-18T01:36:57;4.83;;;3.30;;
12925;SDS011;6529;50.566;9.774;2022-12-18T01:39:22;4.90;;;3.23;;
12925;SDS011;6529;50.566;9.774;2022-12-18T01:41:48;3.77;;;2.80;;
12925;SDS011;6529;50.566;9.774;2022-12-18T01:47:13;4.30;;;2.83;;
12925;SDS011;6529;50.566;9.774;2022-12-18T01:50:06;4.90;;;3.13;;
12925;SDS011;6529;50.566;9.774;2022-12-18T01:52:37;4.83;;;2.80;;
12925;SDS011;6529;50.566;9.774;2022-12-18T01:55:06;5.30;;;2.70;;
12925;SDS011;6529;50.566;9.774;2022-12-18T01:57:32;4.90;;;2.97;;
12925;SDS011;6529;50.566;9.774;2022-12-18T01:59:59;5.43;;;2.90;;
12925;SDS011;6529;50.566;9.774;2022-12-18T02:02:28;3.90;;;2.60;;
12925;SDS011;6529;50.566;9.774;2022-12-18T02:04:55;4.57;;;2.30;;
12925;SDS011;6529;50.566;9.774;2022-12-18T02:09:58;3.90;;;2.17;;
12925;SDS011;6529;50.566;9.774;2022-12-18T02:12:56;4.33;;;2.77;;
12925;SDS011;6529;50.566;9.774;2022-12-18T02:15:41;3.53;;;2.60;;
12925;SDS011;6529;50.566;9.774;2022-12-18T02:18:18;4.20;;;2.10;;
12925;SDS011;6529;50.566;9.774;2022-12-18T02:20:48;4.17;;;1.83;;
12925;SDS011;6529;50.566;9.774;2022-12-18T02:26:38;3.47;;;1.80;;
12925;SDS011;6529;50.566;9.774;2022-12-18T02:29:10;4.50;;;2.77;;
12925;SDS011;6529;50.566;9.774;2022-12-18T02:31:42;5.00;;;3.13;;
12925;SDS011;6529;50.566;9.774;2022-12-18T02:34:12;8.70;;;2.67;;
12925;SDS011;6529;50.566;9.774;2022-12-18T02:36:39;5.87;;;3.37;;
12925;SDS011;6529;50.566;9.774;2022-12-18T02:39:07;5.20;;;2.97;;
12925;SDS011;6529;50.566;9.774;2022-12-18T02:41:45;5.77;;;3.30;;
12925;SDS011;6529;50.566;9.774;2022-12-18T02:44:12;4.67;;;3.33;;
12925;SDS011;6529;50.566;9.774;2022-12-18T02:46:45;4.53;;;2.80;;
12925;SDS011;6529;50.566;9.774;2022-12-18T02:51:56;5.43;;;2.70;;
12925;SDS011;6529;50.566;9.774;2022-12-18T02:54:41;3.10;;;2.47;;
12925;SDS011;6529;50.566;9.774;2022-12-18T03:02:39;3.90;;;2.67;;
12925;SDS011;6529;50.566;9.774;2022-12-18T03:05:15;7.23;;;3.00;;
12925;SDS011;6529;50.566;9.774;2022-12-18T03:10:29;3.53;;;2.57;;
12925;SDS011;6529;50.566;9.774;2022-12-18T03:13:03;4.30;;;2.50;;
12925;SDS011;6529;50.566;9.774;2022-12-18T03:15:43;4.20;;;2.47;;
12925;SDS011;6529;50.566;9.774;2022-12-18T03:18:23;3.60;;;2.40;;
12925;SDS011;6529;50.566;9.774;2022-12-18T03:20:53;4.77;;;2.00;;
12925;SDS011;6529;50.566;9.774;2022-12-18T03:23:23;3.43;;;2.40;;
12925;SDS011;6529;50.566;9.774;2022-12-18T03:25:53;3.73;;;2.43;;
12925;SDS011;6529;50.566;9.774;2022-12-18T03:28:23;2.63;;;2.17;;
12925;SDS011;6529;50.566;9.774;2022-12-18T03:30:53;3.47;;;2.00;;
12925;SDS011;6529;50.566;9.774;2022-12-18T03:33:25;4.23;;;1.97;;
12925;SDS011;6529;50.566;9.774;2022-12-18T03:35:52;3.83;;;2.00;;
12925;SDS011;6529;50.566;9.774;2022-12-18T03:38:17;2.63;;;1.87;;
12925;SDS011;6529;50.566;9.774;2022-12-18T03:43:32;3.27;;;2.00;;
12925;SDS011;6529;50.566;9.774;2022-12-18T03:46:02;3.23;;;1.83;;
12925;SDS011;6529;50.566;9.774;2022-12-18T03:48:39;3.10;;;2.03;;
12925;SDS011;6529;50.566;9.774;2022-12-18T03:51:52;1.73;;;1.63;;
12925;SDS011;6529;50.566;9.774;2022-12-18T03:54:24;3.83;;;1.60;;
12925;SDS011;6529;50.566;9.774;2022-12-18T03:56:57;1.73;;;1.40;;
12925;SDS011;6529;50.566;9.774;2022-12-18T03:59:26;3.17;;;1.77;;
12925;SDS011;6529;50.566;9.774;2022-12-18T04:01:53;3.00;;;1.50;;
12925;SDS011;6529;50.566;9.774;2022-12-18T04:04:22;4.03;;;2.40;;
12925;SDS011;6529;50.566;9.774;2022-12-18T04:06:50;1.03;;;0.97;;
12925;SDS011;6529;50.566;9.774;2022-12-18T04:09:17;2.83;;;1.90;;
12925;SDS011;6529;50.566;9.774;2022-12-18T04:11:44;2.97;;;2.57;;
12925;SDS011;6529;50.566;9.774;2022-12-18T04:14:10;3.30;;;1.70;;
12925;SDS011;6529;50.566;9.774;2022-12-18T04:16:36;3.23;;;1.53;;
12925;SDS011;6529;50.566;9.774;2022-12-18T04:19:02;1.70;;;1.30;;
12925;SDS011;6529;50.566;9.774;2022-12-18T04:21:28;1.73;;;1.57;;
12925;SDS011;6529;50.566;9.774;2022-12-18T04:23:54;1.83;;;1.57;;
12925;SDS011;6529;50.566;9.774;2022-12-18T04:26:19;2.77;;;1.73;;
12925;SDS011;6529;50.566;9.774;2022-12-18T04:28:45;2.37;;;1.80;;
12925;SDS011;6529;50.566;9.774;2022-12-18T04:31:10;3.60;;;2.03;;
12925;SDS011;6529;50.566;9.774;2022-12-18T04:33:36;2.47;;;1.93;;
12925;SDS011;6529;50.566;9.774;2022-12-18T04:36:02;1.73;;;1.30;;
12925;SDS011;6529;50.566;9.774;2022-12-18T04:38:28;3.20;;;2.20;;
12925;SDS011;6529;50.566;9.774;2022-12-18T04:40:53;4.33;;;2.33;;
12925;SDS011;6529;50.566;9.774;2022-12-18T04:43:19;3.03;;;2.10;;
12925;SDS011;6529;50.566;9.774;2022-12-18T04:45:45;4.40;;;1.60;;
12925;SDS011;6529;50.566;9.774;2022-12-18T04:48:10;2.90;;;1.70;;
12925;SDS011;6529;50.566;9.774;2022-12-18T04:50:36;2.63;;;2.03;;
12925;SDS011;6529;50.566;9.774;2022-12-18T04:53:01;3.20;;;2.10;;
12925;SDS011;6529;50.566;9.774;2022-12-18T04:55:27;3.77;;;2.30;;
12925;SDS011;6529;50.566;9.774;2022-12-18T04:57:53;5.77;;;2.80;;
12925;SDS011;6529;50.566;9.774;2022-12-18T05:00:19;2.20;;;1.93;;
12925;SDS011;6529;50.566;9.774;2022-12-18T05:02:45;1.57;;;1.37;;
12925;SDS011;6529;50.566;9.774;2022-12-18T05:05:11;3.20;;;1.77;;
12925;SDS011;6529;50.566;9.774;2022-12-18T05:07:36;3.03;;;2.10;;
12925;SDS011;6529;50.566;9.774;2022-12-18T05:10:02;5.57;;;2.17;;
12925;SDS011;6529;50.566;9.774;2022-12-18T05:12:28;4.23;;;2.00;;
12925;SDS011;6529;50.566;9.774;2022-12-18T05:14:55;4.33;;;2.03;;
12925;SDS011;6529;50.566;9.774;2022-12-18T05:17:21;5.70;;;2.20;;
12925;SDS011;6529;50.566;9.774;2022-12-18T05:19:46;3.87;;;2.10;;
12925;SDS011;6529;50.566;9.774;2022-12-18T05:22:12;2.07;;;1.33;;
12925;SDS011;6529;50.566;9.774;2022-12-18T05:24:37;1.77;;;1.50;;
12925;SDS011;6529;50.566;9.774;2022-12-18T05:27:03;3.13;;;2.17;;
12925;SDS011;6529;50.566;9.774;2022-12-18T05:29:29;1.60;;;1.50;;
12925;SDS011;6529;50.566;9.774;2022-12-18T05:31:54;2.17;;;1.93;;
12925;SDS011;6529;50.566;9.774;2022-12-18T05:34:20;3.90;;;2.03;;
12925;SDS011;6529;50.566;9.774;2022-12-18T05:36:46;2.40;;;2.20;;
12925;SDS011;6529;50.566;9.774;2022-12-18T05:39:11;5.20;;;2.00;;
12925;SDS011;6529;50.566;9.774;2022-12-18T05:41:37;2.90;;;2.23;;
12925;SDS011;6529;50.566;9.774;2022-12-18T05:44:03;2.13;;;1.93;;
12925;SDS011;6529;50.566;9.774;2022-12-18T05:46:28;2.93;;;1.90;;
12925;SDS011;6529;50.566;9.774;2022-12-18T05:48:54;1.83;;;1.60;;
12925;SDS011;6529;50.566;9.774;2022-12-18T05:51:20;2.50;;;2.00;;
12925;SDS011;6529;50.566;9.774;2022-12-18T05:53:47;13.80;;;4.67;;
12925;SDS011;6529;50.566;9.774;2022-12-18T05:56:14;6.33;;;3.03;;
12925;SDS011;6529;50.566;9.774;2022-12-18T05:58:41;3.23;;;1.97;;
12925;SDS011;6529;50.566;9.774;2022-12-18T06:01:12;3.33;;;2.43;;
12925;SDS011;6529;50.566;9.774;2022-12-18T06:03:40;3.57;;;2.20;;
12925;SDS011;6529;50.566;9.774;2022-12-18T06:06:13;3.03;;;2.00;;
12925;SDS011;6529;50.566;9.774;2022-12-18T06:08:39;3.63;;;2.10;;
12925;SDS011;6529;50.566;9.774;2022-12-18T06:11:04;3.77;;;2.10;;
12925;SDS011;6529;50.566;9.774;2022-12-18T06:13:30;5.30;;;2.17;;
12925;SDS011;6529;50.566;9.774;2022-12-18T06:15:55;2.70;;;2.10;;
12925;SDS011;6529;50.566;9.774;2022-12-18T06:18:21;4.53;;;2.10;;
12925;SDS011;6529;50.566;9.774;2022-12-18T06:20:53;2.07;;;1.67;;
12925;SDS011;6529;50.566;9.774;2022-12-18T06:23:23;2.73;;;1.93;;
12925;SDS011;6529;50.566;9.774;2022-12-18T06:25:48;2.77;;;1.80;;
12925;SDS011;6529;50.566;9.774;2022-12-18T06:28:14;2.83;;;2.23;;
12925;SDS011;6529;50.566;9.774;2022-12-18T06:30:43;2.27;;;1.73;;
12925;SDS011;6529;50.566;9.774;2022-12-18T06:33:09;3.10;;;1.60;;
12925;SDS011;6529;50.566;9.774;2022-12-18T06:35:35;3.63;;;2.00;;
12925;SDS011;6529;50.566;9.774;2022-12-18T06:38:01;2.83;;;1.53;;
12925;SDS011;6529;50.566;9.774;2022-12-18T06:40:27;3.33;;;2.07;;
12925;SDS011;6529;50.566;9.774;2022-12-18T06:42:53;3.03;;;1.80;;
12925;SDS011;6529;50.566;9.774;2022-12-18T06:45:18;3.00;;;1.80;;
12925;SDS011;6529;50.566;9.774;2022-12-18T06:47:44;3.80;;;1.77;;
12925;SDS011;6529;50.566;9.774;2022-12-18T06:50:10;2.70;;;1.73;;
12925;SDS011;6529;50.566;9.774;2022-12-18T06:52:36;3.20;;;1.87;;
12925;SDS011;6529;50.566;9.774;2022-12-18T06:55:02;3.27;;;2.03;;
12925;SDS011;6529;50.566;9.774;2022-12-18T06:57:28;2.93;;;1.83;;
12925;SDS011;6529;50.566;9.774;2022-12-18T06:59:54;2.10;;;1.57;;
12925;SDS011;6529;50.566;9.774;2022-12-18T07:02:19;2.50;;;1.80;;
12925;SDS011;6529;50.566;9.774;2022-12-18T07:04:45;3.57;;;1.97;;
12925;SDS011;6529;50.566;9.774;2022-12-18T07:07:10;2.60;;;1.40;;
12925;SDS011;6529;50.566;9.774;2022-12-18T07:09:36;1.90;;;1.20;;
12925;SDS011;6529;50.566;9.774;2022-12-18T07:12:01;2.43;;;1.27;;
12925;SDS011;6529;50.566;9.774;2022-12-18T07:14:27;1.70;;;1.40;;
12925;SDS011;6529;50.566;9.774;2022-12-18T07:16:53;2.53;;;1.80;;
12925;SDS011;6529;50.566;9.774;2022-12-18T07:19:18;2.43;;;1.70;;
12925;SDS011;6529;50.566;9.774;2022-12-18T07:21:44;3.10;;;2.00;;
12925;SDS011;6529;50.566;9.774;2022-12-18T07:24:09;3.57;;;2.20;;
12925;SDS011;6529;50.566;9.774;2022-12-18T07:26:35;3.57;;;1.97;;
12925;SDS011;6529;50.566;9.774;2022-12-18T07:29:00;2.77;;;1.80;;
12925;SDS011;6529;50.566;9.774;2022-12-18T07:31:26;2.87;;;2.30;;
12925;SDS011;6529;50.566;9.774;2022-12-18T07:33:52;5.00;;;2.63;;
12925;SDS011;6529;50.566;9.774;2022-12-18T07:36:18;4.53;;;2.83;;
12925;SDS011;6529;50.566;9.774;2022-12-18T07:38:46;4.20;;;2.70;;
12925;SDS011;6529;50.566;9.774;2022-12-18T07:41:13;3.50;;;2.40;;
12925;SDS011;6529;50.566;9.774;2022-12-18T07:43:39;2.60;;;1.97;;
12925;SDS011;6529;50.566;9.774;2022-12-18T07:46:06;3.13;;;2.27;;
12925;SDS011;6529;50.566;9.774;2022-12-18T07:48:32;2.77;;;1.87;;
12925;SDS011;6529;50.566;9.774;2022-12-18T07:51:02;3.40;;;1.90;;
12925;SDS011;6529;50.566;9.774;2022-12-18T07:53:30;5.97;;;2.10;;
12925;SDS011;6529;50.566;9.774;2022-12-18T07:55:59;2.40;;;2.10;;
12925;SDS011;6529;50.566;9.774;2022-12-18T07:58:26;2.60;;;1.73;;
12925;SDS011;6529;50.566;9.774;2022-12-18T08:00:51;3.00;;;2.17;;
12925;SDS011;6529;50.566;9.774;2022-12-18T08:03:18;2.90;;;1.60;;
12925;SDS011;6529;50.566;9.774;2022-12-18T08:05:43;3.23;;;1.90;;
12925;SDS011;6529;50.566;9.774;2022-12-18T08:08:09;3.03;;;2.00;;
12925;SDS011;6529;50.566;9.774;2022-12-18T08:10:35;3.17;;;2.30;;
12925;SDS011;6529;50.566;9.774;2022-12-18T08:13:00;8.07;;;5.40;;
12925;SDS011;6529;50.566;9.774;2022-12-18T08:15:26;7.77;;;4.43;;
12925;SDS011;6529;50.566;9.774;2022-12-18T08:17:51;40.23;;;16.30;;
12925;SDS011;6529;50.566;9.774;2022-12-18T08:20:17;19.30;;;9.90;;
12925;SDS011;6529;50.566;9.774;2022-12-18T08:22:43;16.13;;;8.30;;
12925;SDS011;6529;50.566;9.774;2022-12-18T08:25:09;19.77;;;8.80;;
12925;SDS011;6529;50.566;9.774;2022-12-18T08:27:35;12.33;;;6.60;;
12925;SDS011;6529;50.566;9.774;2022-12-18T08:30:02;10.30;;;5.13;;
12925;SDS011;6529;50.566;9.774;2022-12-18T08:32:28;10.83;;;4.97;;
12925;SDS011;6529;50.566;9.774;2022-12-18T08:34:54;10.47;;;5.23;;
12925;SDS011;6529;50.566;9.774;2022-12-18T08:37:20;8.23;;;5.00;;
12925;SDS011;6529;50.566;9.774;2022-12-18T08:39:45;7.50;;;4.73;;
12925;SDS011;6529;50.566;9.774;2022-12-18T08:42:11;10.37;;;5.50;;
12925;SDS011;6529;50.566;9.774;2022-12-18T08:44:55;5.73;;;3.93;;
12925;SDS011;6529;50.566;9.774;2022-12-18T08:47:20;8.03;;;4.93;;
12925;SDS011;6529;50.566;9.774;2022-12-18T08:49:46;9.43;;;5.50;;
12925;SDS011;6529;50.566;9.774;2022-12-18T08:52:11;13.00;;;6.50;;
12925;SDS011;6529;50.566;9.774;2022-12-18T08:54:37;13.53;;;7.13;;
12925;SDS011;6529;50.566;9.774;2022-12-18T08:57:03;6.90;;;4.67;;
12925;SDS011;6529;50.566;9.774;2022-12-18T08:59:28;12.50;;;7.30;;
12925;SDS011;6529;50.566;9.774;2022-12-18T09:01:54;10.40;;;6.13;;
12925;SDS011;6529;50.566;9.774;2022-12-18T09:04:20;14.50;;;7.07;;
12925;SDS011;6529;50.566;9.774;2022-12-18T09:06:46;12.17;;;7.47;;
12925;SDS011;6529;50.566;9.774;2022-12-18T09:09:12;9.90;;;5.27;;
12925;SDS011;6529;50.566;9.774;2022-12-18T09:11:37;9.73;;;5.37;;
12925;SDS011;6529;50.566;9.774;2022-12-18T09:14:03;14.63;;;6.30;;
12925;SDS011;6529;50.566;9.774;2022-12-18T09:16:29;8.77;;;5.47;;
12925;SDS011;6529;50.566;9.774;2022-12-18T09:18:56;10.13;;;5.40;;
12925;SDS011;6529;50.566;9.774;2022-12-18T09:21:26;13.83;;;5.90;;
12925;SDS011;6529;50.566;9.774;2022-12-18T09:23:55;12.07;;;5.70;;
12925;SDS011;6529;50.566;9.774;2022-12-18T09:26:22;10.93;;;6.17;;
12925;SDS011;6529;50.566;9.774;2022-12-18T09:28:49;12.83;;;7.70;;
12925;SDS011;6529;50.566;9.774;2022-12-18T09:31:15;12.67;;;6.83;;
12925;SDS011;6529;50.566;9.774;2022-12-18T09:33:43;15.23;;;7.93;;
12925;SDS011;6529;50.566;9.774;2022-12-18T09:36:10;18.40;;;8.83;;
12925;SDS011;6529;50.566;9.774;2022-12-18T09:38:37;16.57;;;9.60;;
12925;SDS011;6529;50.566;9.774;2022-12-18T09:43:51;22.47;;;12.80;;
12925;SDS011;6529;50.566;9.774;2022-12-18T09:46:34;20.20;;;10.60;;
12925;SDS011;6529;50.566;9.774;2022-12-18T09:49:06;24.73;;;10.47;;
12925;SDS011;6529;50.566;9.774;2022-12-18T09:54:36;28.73;;;14.37;;
12925;SDS011;6529;50.566;9.774;2022-12-18T09:57:03;37.57;;;18.23;;
12925;SDS011;6529;50.566;9.774;2022-12-18T09:59:30;39.23;;;18.87;;
12925;SDS011;6529;50.566;9.774;2022-12-18T10:02:11;12.30;;;7.60;;
12925;SDS011;6529;50.566;9.774;2022-12-18T10:04:41;22.70;;;12.10;;
12925;SDS011;6529;50.566;9.774;2022-12-18T10:07:09;9.80;;;5.93;;
12925;SDS011;6529;50.566;9.774;2022-12-18T10:12:32;14.83;;;8.60;;
12925;SDS011;6529;50.566;9.774;2022-12-18T10:25:47;20.83;;;11.50;;
12925;SDS011;6529;50.566;9.774;2022-12-18T10:28:20;20.57;;;11.40;;
12925;SDS011;6529;50.566;9.774;2022-12-18T10:30:47;25.43;;;14.30;;
12925;SDS011;6529;50.566;9.774;2022-12-18T10:33:16;20.67;;;11.57;;
12925;SDS011;6529;50.566;9.774;2022-12-18T10:35:48;21.70;;;13.50;;
12925;SDS011;6529;50.566;9.774;2022-12-18T10:40:47;15.03;;;10.63;;
12925;SDS011;6529;50.566;9.774;2022-12-18T10:43:19;18.30;;;10.63;;
12925;SDS011;6529;50.566;9.774;2022-12-18T10:46:00;17.20;;;10.80;;
12925;SDS011;6529;50.566;9.774;2022-12-18T10:48:27;18.07;;;10.83;;
12925;SDS011;6529;50.566;9.774;2022-12-18T10:50:54;18.43;;;10.67;;
12925;SDS011;6529;50.566;9.774;2022-12-18T10:53:22;17.00;;;9.90;;
12925;SDS011;6529;50.566;9.774;2022-12-18T10:55:50;16.27;;;10.07;;
12925;SDS011;6529;50.566;9.774;2022-12-18T10:58:29;16.23;;;10.80;;
12925;SDS011;6529;50.566;9.774;2022-12-18T11:03:59;19.13;;;12.33;;
12925;SDS011;6529;50.566;9.774;2022-12-18T11:06:25;17.30;;;10.80;;
12925;SDS011;6529;50.566;9.774;2022-12-18T11:09:01;13.63;;;9.00;;
12925;SDS011;6529;50.566;9.774;2022-12-18T11:11:47;15.33;;;9.20;;
12925;SDS011;6529;50.566;9.774;2022-12-18T11:14:21;19.90;;;10.63;;
12925;SDS011;6529;50.566;9.774;2022-12-18T11:16:55;13.87;;;8.53;;
12925;SDS011;6529;50.566;9.774;2022-12-18T11:19:35;14.97;;;9.67;;
12925;SDS011;6529;50.566;9.774;2022-12-18T11:27:36;14.80;;;9.43;;
12925;SDS011;6529;50.566;9.774;2022-12-18T11:32:45;16.83;;;9.93;;
12925;SDS011;6529;50.566;9.774;2022-12-18T11:35:18;17.77;;;10.23;;
12925;SDS011;6529;50.566;9.774;2022-12-18T11:37:49;16.07;;;10.33;;
12925;SDS011;6529;50.566;9.774;2022-12-18T11:40:36;15.13;;;10.20;;
12925;SDS011;6529;50.566;9.774;2022-12-18T11:45:35;15.57;;;9.73;;
12925;SDS011;6529;50.566;9.774;2022-12-18T11:48:17;16.33;;;10.93;;
12925;SDS011;6529;50.566;9.774;2022-12-18T11:50:51;18.17;;;9.87;;
12925;SDS011;6529;50.566;9.774;2022-12-18T11:53:18;15.27;;;8.73;;
12925;SDS011;6529;50.566;9.774;2022-12-18T12:03:49;12.83;;;8.33;;
12925;SDS011;6529;50.566;9.774;2022-12-18T12:12:16;12.83;;;8.43;;
12925;SDS011;6529;50.566;9.774;2022-12-18T12:23:53;19.67;;;12.67;;
12925;SDS011;6529;50.566;9.774;2022-12-18T12:32:05;21.00;;;11.63;;
12925;SDS011;6529;50.566;9.774;2022-12-18T12:40:17;19.60;;;10.83;;
12925;SDS011;6529;50.566;9.774;2022-12-18T12:42:45;18.50;;;12.57;;
12925;SDS011;6529;50.566;9.774;2022-12-18T12:45:38;27.47;;;15.53;;
12925;SDS011;6529;50.566;9.774;2022-12-18T12:48:18;26.50;;;14.93;;
12925;SDS011;6529;50.566;9.774;2022-12-18T12:50:56;22.97;;;13.87;;
12925;SDS011;6529;50.566;9.774;2022-12-18T12:53:27;28.40;;;15.43;;
12925;SDS011;6529;50.566;9.774;2022-12-18T12:55:57;20.77;;;12.77;;
12925;SDS011;6529;50.566;9.774;2022-12-18T13:07:06;23.10;;;13.30;;
12925;SDS011;6529;50.566;9.774;2022-12-18T13:10:14;21.80;;;13.40;;
12925;SDS011;6529;50.566;9.774;2022-12-18T13:12:52;18.63;;;12.30;;
12925;SDS011;6529;50.566;9.774;2022-12-18T13:17:48;22.83;;;13.07;;
12925;SDS011;6529;50.566;9.774;2022-12-18T13:20:14;19.10;;;12.57;;
12925;SDS011;6529;50.566;9.774;2022-12-18T13:22:42;22.47;;;13.20;;
12925;SDS011;6529;50.566;9.774;2022-12-18T13:30:44;22.77;;;13.53;;
12925;SDS011;6529;50.566;9.774;2022-12-18T13:35:51;21.13;;;12.93;;
12925;SDS011;6529;50.566;9.774;2022-12-18T13:41:03;19.17;;;12.93;;
12925;SDS011;6529;50.566;9.774;2022-12-18T13:43:48;20.97;;;12.67;;
12925;SDS011;6529;50.566;9.774;2022-12-18T13:46:29;19.93;;;12.63;;
12925;SDS011;6529;50.566;9.774;2022-12-18T13:51:40;20.30;;;12.13;;
12925;SDS011;6529;50.566;9.774;2022-12-18T13:57:05;22.27;;;11.57;;
12925;SDS011;6529;50.566;9.774;2022-12-18T13:59:50;20.53;;;12.47;;
12925;SDS011;6529;50.566;9.774;2022-12-18T14:02:17;21.70;;;13.77;;
12925;SDS011;6529;50.566;9.774;2022-12-18T14:04:49;21.47;;;12.80;;
12925;SDS011;6529;50.566;9.774;2022-12-18T14:09:47;24.53;;;14.00;;
12925;SDS011;6529;50.566;9.774;2022-12-18T14:12:16;24.60;;;12.80;;
12925;SDS011;6529;50.566;9.774;2022-12-18T14:17:52;28.63;;;15.00;;
12925;SDS011;6529;50.566;9.774;2022-12-18T14:20:20;23.40;;;12.77;;
12925;SDS011;6529;50.566;9.774;2022-12-18T14:22:47;22.30;;;12.67;;
12925;SDS011;6529;50.566;9.774;2022-12-18T14:25:23;23.10;;;13.00;;
12925;SDS011;6529;50.566;9.774;2022-12-18T14:28:09;23.40;;;12.67;;
12925;SDS011;6529;50.566;9.774;2022-12-18T14:30:40;33.13;;;17.10;;
12925;SDS011;6529;50.566;9.774;2022-12-18T14:33:14;31.30;;;17.77;;
12925;SDS011;6529;50.566;9.774;2022-12-18T14:35:53;28.20;;;16.33;;
12925;SDS011;6529;50.566;9.774;2022-12-18T14:40:59;31.40;;;16.10;;
12925;SDS011;6529;50.566;9.774;2022-12-18T14:43:34;23.87;;;12.83;;
12925;SDS011;6529;50.566;9.774;2022-12-18T14:46:01;24.53;;;13.07;;
12925;SDS011;6529;50.566;9.774;2022-12-18T14:48:35;21.70;;;11.53;;
12925;SDS011;6529;50.566;9.774;2022-12-18T14:51:15;22.40;;;12.40;;
12925;SDS011;6529;50.566;9.774;2022-12-18T14:53:44;20.97;;;12.40;;
12925;SDS011;6529;50.566;9.774;2022-12-18T14:56:16;19.47;;;10.83;;
12925;SDS011;6529;50.566;9.774;2022-12-18T14:58:46;23.03;;;11.77;;
12925;SDS011;6529;50.566;9.774;2022-12-18T15:01:36;38.70;;;20.73;;
12925;SDS011;6529;50.566;9.774;2022-12-18T15:04:04;16.37;;;8.73;;
12925;SDS011;6529;50.566;9.774;2022-12-18T15:06:47;23.37;;;12.33;;
12925;SDS011;6529;50.566;9.774;2022-12-18T15:09:23;23.13;;;13.40;;
12925;SDS011;6529;50.566;9.774;2022-12-18T15:11:55;23.10;;;13.43;;
12925;SDS011;6529;50.566;9.774;2022-12-18T15:17:00;22.43;;;13.70;;
12925;SDS011;6529;50.566;9.774;2022-12-18T15:19:37;24.03;;;14.00;;
12925;SDS011;6529;50.566;9.774;2022-12-18T15:22:15;24.13;;;15.73;;
12925;SDS011;6529;50.566;9.774;2022-12-18T15:24:45;22.37;;;15.20;;
12925;SDS011;6529;50.566;9.774;2022-12-18T15:27:24;24.00;;;15.60;;
12925;SDS011;6529;50.566;9.774;2022-12-18T15:30:02;23.90;;;14.97;;
12925;SDS011;6529;50.566;9.774;2022-12-18T15:32:42;23.00;;;15.03;;
12925;SDS011;6529;50.566;9.774;2022-12-18T15:37:36;19.87;;;12.80;;
12925;SDS011;6529;50.566;9.774;2022-12-18T15:40:03;19.60;;;12.73;;
12925;SDS011;6529;50.566;9.774;2022-12-18T15:42:29;20.93;;;12.67;;
12925;SDS011;6529;50.566;9.774;2022-12-18T15:45:14;20.83;;;11.93;;
12925;SDS011;6529;50.566;9.774;2022-12-18T15:47:40;19.20;;;10.63;;
12925;SDS011;6529;50.566;9.774;2022-12-18T15:50:09;20.47;;;10.90;;
12925;SDS011;6529;50.566;9.774;2022-12-18T15:52:39;18.23;;;10.63;;
12925;SDS011;6529;50.566;9.774;2022-12-18T15:55:12;19.50;;;10.33;;
12925;SDS011;6529;50.566;9.774;2022-12-18T15:58:04;18.03;;;10.33;;
12925;SDS011;6529;50.566;9.774;2022-12-18T16:00:31;19.33;;;9.90;;
12925;SDS011;6529;50.566;9.774;2022-12-18T16:02:59;20.73;;;10.30;;
12925;SDS011;6529;50.566;9.774;2022-12-18T16:05:24;17.67;;;9.70;;
12925;SDS011;6529;50.566;9.774;2022-12-18T16:07:51;16.27;;;9.30;;
12925;SDS011;6529;50.566;9.774;2022-12-18T16:10:17;19.47;;;9.60;;
12925;SDS011;6529;50.566;9.774;2022-12-18T16:12:43;19.67;;;10.00;;
12925;SDS011;6529;50.566;9.774;2022-12-18T16:15:09;23.80;;;9.93;;
12925;SDS011;6529;50.566;9.774;2022-12-18T16:17:38;21.73;;;11.63;;
12925;SDS011;6529;50.566;9.774;2022-12-18T16:20:04;20.83;;;10.53;;
12925;SDS011;6529;50.566;9.774;2022-12-18T16:22:31;20.93;;;10.70;;
12925;SDS011;6529;50.566;9.774;2022-12-18T16:24:56;21.00;;;10.80;;
12925;SDS011;6529;50.566;9.774;2022-12-18T16:27:22;21.97;;;10.93;;
12925;SDS011;6529;50.566;9.774;2022-12-18T16:29:49;22.67;;;11.03;;
12925;SDS011;6529;50.566;9.774;2022-12-18T16:32:16;21.83;;;10.57;;
12925;SDS011;6529;50.566;9.774;2022-12-18T16:34:44;21.40;;;10.83;;
12925;SDS011;6529;50.566;9.774;2022-12-18T16:37:10;20.53;;;9.73;;
12925;SDS011;6529;50.566;9.774;2022-12-18T16:39:37;24.63;;;12.23;;
12925;SDS011;6529;50.566;9.774;2022-12-18T16:42:05;21.47;;;10.80;;
12925;SDS011;6529;50.566;9.774;2022-12-18T16:44:43;26.37;;;14.60;;
12925;SDS011;6529;50.566;9.774;2022-12-18T16:47:10;26.47;;;13.50;;
12925;SDS011;6529;50.566;9.774;2022-12-18T16:49:36;21.07;;;10.10;;
12925;SDS011;6529;50.566;9.774;2022-12-18T16:52:02;21.33;;;10.63;;
12925;SDS011;6529;50.566;9.774;2022-12-18T16:54:29;22.23;;;11.63;;
12925;SDS011;6529;50.566;9.774;2022-12-18T16:56:55;24.23;;;10.53;;
12925;SDS011;6529;50.566;9.774;2022-12-18T16:59:20;20.10;;;11.07;;
12925;SDS011;6529;50.566;9.774;2022-12-18T17:01:47;26.33;;;12.97;;
12925;SDS011;6529;50.566;9.774;2022-12-18T17:04:13;23.90;;;11.90;;
12925;SDS011;6529;50.566;9.774;2022-12-18T17:06:40;25.60;;;12.40;;
12925;SDS011;6529;50.566;9.774;2022-12-18T17:09:08;32.57;;;15.30;;
12925;SDS011;6529;50.566;9.774;2022-12-18T17:11:37;31.57;;;16.10;;
12925;SDS011;6529;50.566;9.774;2022-12-18T17:14:09;28.00;;;14.53;;
12925;SDS011;6529;50.566;9.774;2022-12-18T17:16:39;25.17;;;12.97;;